Time;durP1;ratioP1;P1;durP2;ratioP2;P2;SDS_P1;SDS_P2;PMS_P1;PMS_P2;Temp;Humidity;BMP_temperature;BMP_pressure;BME280_temperature;BME280_humidity;BME280_pressure;Samples;Min_cycle;Max_cycle;Signal;HPM_P1;HPM_P2
2022/11/25 00:00:10;;;;;;;21.52;4.68;;;;;;;8.40;100.00;100982.06;5062059;28;20039;-74
2022/11/25 00:02:35;;;;;;;27.75;4.82;;;;;;;8.44;100.00;100980.66;5044468;28;20092;-74
2022/11/25 00:05:00;;;;;;;21.63;4.72;;;;;;;8.39;100.00;100974.88;5059030;28;20040;-74
2022/11/25 00:07:26;;;;;;;28.23;4.65;;;;;;;8.36;100.00;100975.25;5049147;28;20053;-73
2022/11/25 00:09:51;;;;;;;15.88;4.72;;;;;;;8.40;100.00;100970.28;5058531;28;20388;-75
2022/11/25 00:12:16;;;;;;;28.17;5.22;;;;;;;8.45;100.00;100963.28;5042424;28;20024;-75
2022/11/25 00:14:42;;;;;;;28.48;5.93;;;;;;;8.42;100.00;100960.03;5047104;28;20052;-74
2022/11/25 00:17:07;;;;;;;22.38;4.10;;;;;;;8.41;100.00;100961.94;5062238;28;20035;-73
2022/11/25 00:19:32;;;;;;;30.15;3.88;;;;;;;8.37;100.00;100944.22;5063228;28;20025;-74
2022/11/25 00:21:58;;;;;;;18.35;4.70;;;;;;;8.41;100.00;100947.41;5046800;28;20116;-75
2022/11/25 00:24:23;;;;;;;21.90;4.20;;;;;;;8.44;100.00;100947.06;5063591;28;20052;-74
2022/11/25 00:26:48;;;;;;;23.25;4.57;;;;;;;8.44;100.00;100947.06;5044547;28;20032;-74
2022/11/25 00:29:14;;;;;;;17.70;4.05;;;;;;;8.57;100.00;100944.56;5063881;28;20033;-75
2022/11/25 00:31:40;;;;;;;15.13;4.13;;;;;;;8.57;100.00;100953.63;5063431;28;20036;-74
2022/11/25 00:34:06;;;;;;;21.58;3.72;;;;;;;8.51;100.00;100951.63;5047285;28;20029;-74
2022/11/25 00:36:36;;;;;;;19.02;4.97;;;;;;;8.54;100.00;100956.72;5043073;28;20064;-73
2022/11/25 00:39:23;;;;;;;35.88;5.53;;;;;;;8.57;100.00;100952.75;5064450;28;20028;-74
2022/11/25 00:44:35;;;;;;;21.13;5.05;;;;;;;8.63;100.00;100957.50;5062658;28;20486;-73
2022/11/25 00:47:11;;;;;;;26.23;4.57;;;;;;;8.63;100.00;100960.22;5062789;28;20490;-75
2022/11/25 00:49:38;;;;;;;27.15;5.00;;;;;;;8.59;100.00;100964.38;5061339;28;20091;-74
2022/11/25 00:52:04;;;;;;;31.38;4.95;;;;;;;8.60;100.00;100966.91;5065187;28;20476;-74
2022/11/25 00:54:30;;;;;;;24.05;5.45;;;;;;;8.65;100.00;100975.41;5066766;28;20029;-73
2022/11/25 00:56:56;;;;;;;24.20;5.60;;;;;;;8.66;100.00;100970.78;5063858;28;20107;-75
2022/11/25 00:59:22;;;;;;;27.08;4.63;;;;;;;8.72;100.00;100980.97;5059510;28;20044;-74
2022/11/25 01:01:47;;;;;;;25.63;4.03;;;;;;;8.71;100.00;100980.13;5058354;28;20407;-74
2022/11/25 01:04:13;;;;;;;20.83;4.97;;;;;;;8.70;100.00;100988.53;5059555;28;20064;-74
2022/11/25 01:06:39;;;;;;;26.37;4.43;;;;;;;8.76;100.00;100985.88;5061258;28;20031;-74
2022/11/25 01:09:06;;;;;;;33.33;5.60;;;;;;;8.76;100.00;100993.25;5063886;28;20710;-75
2022/11/25 01:11:32;;;;;;;21.83;4.18;;;;;;;8.73;100.00;100994.47;5042323;28;20025;-74
2022/11/25 01:13:57;;;;;;;29.92;4.82;;;;;;;8.75;100.00;100997.03;5062427;28;20035;-75
2022/11/25 01:16:24;;;;;;;18.92;4.07;;;;;;;8.82;100.00;100987.06;5066268;28;20059;-74
2022/11/25 01:18:50;;;;;;;28.67;4.57;;;;;;;8.86;100.00;100999.31;5047707;28;20082;-74
2022/11/25 01:21:21;;;;;;;17.48;5.53;;;;;;;8.82;100.00;100996.06;5055766;28;20538;-75
2022/11/25 01:23:47;;;;;;;20.50;4.57;;;;;;;8.78;100.00;100994.78;5064463;28;20392;-74
2022/11/25 01:26:17;;;;;;;28.65;4.50;;;;;;;8.79;100.00;100999.19;5058632;28;20025;-74
2022/11/25 01:28:42;;;;;;;25.98;4.65;;;;;;;8.84;100.00;100988.56;5063617;28;20482;-74
2022/11/25 01:31:14;;;;;;;20.52;4.65;;;;;;;8.90;100.00;101006.97;5061609;28;20137;-73
2022/11/25 01:33:40;;;;;;;23.10;4.85;;;;;;;8.85;100.00;100998.47;5042298;28;20020;-73
2022/11/25 01:36:09;;;;;;;29.25;5.25;;;;;;;8.93;100.00;100995.69;5064747;28;20036;-74
2022/11/25 01:38:34;;;;;;;24.58;5.53;;;;;;;8.98;100.00;101014.25;5061725;28;20028;-74
2022/11/25 01:41:00;;;;;;;18.98;3.80;;;;;;;8.91;100.00;101013.28;5045523;28;20074;-74
2022/11/25 01:43:27;;;;;;;32.08;6.28;;;;;;;8.87;100.00;101007.31;5058778;28;20102;-75
2022/11/25 01:45:56;;;;;;;30.42;4.20;;;;;;;8.92;100.00;100982.19;5043328;28;20037;-74
2022/11/25 01:48:31;;;;;;;16.80;4.20;;;;;;;8.99;100.00;100972.22;5063779;28;20028;-73
2022/11/25 01:50:56;;;;;;;20.65;3.72;;;;;;;8.96;100.00;100969.88;5061339;28;20074;-75
2022/11/25 01:53:22;;;;;;;20.25;5.28;;;;;;;9.01;100.00;100976.47;5040488;28;20024;-74
2022/11/25 01:55:55;;;;;;;18.13;3.75;;;;;;;8.93;100.00;100979.28;5039434;28;20032;-74
2022/11/25 01:58:27;;;;;;;18.25;4.43;;;;;;;8.97;100.00;100998.91;5043980;28;20318;-73
2022/11/25 02:00:53;;;;;;;21.80;4.07;;;;;;;8.90;100.00;101017.88;5059076;28;20056;-75
2022/11/25 02:03:26;;;;;;;17.23;4.00;;;;;;;8.87;100.00;101022.88;5058154;28;20059;-73
2022/11/25 02:06:15;;;;;;;22.95;3.90;;;;;;;8.84;100.00;101002.22;5060335;28;20025;-75
2022/11/25 02:08:45;;;;;;;23.65;4.10;;;;;;;8.78;100.00;101010.28;5062273;28;21473;-73
2022/11/25 02:11:13;;;;;;;22.45;4.38;;;;;;;8.81;100.00;101012.69;5041337;28;20139;-73
2022/11/25 02:13:39;;;;;;;21.23;3.28;;;;;;;8.77;100.00;101000.41;5060964;28;20032;-73
2022/11/25 02:16:05;;;;;;;13.45;2.92;;;;;;;8.85;100.00;101001.19;5063766;28;20036;-73
2022/11/25 02:18:30;;;;;;;16.13;3.33;;;;;;;8.87;100.00;100998.28;5059156;28;20048;-73
2022/11/25 02:20:56;;;;;;;19.27;3.13;;;;;;;8.83;100.00;101011.47;5062483;28;20060;-74
2022/11/25 02:23:42;;;;;;;23.08;3.72;;;;;;;8.77;100.00;101009.47;5043568;28;20046;-73
2022/11/25 02:26:08;;;;;;;20.42;3.30;;;;;;;8.85;100.00;101020.31;5040183;28;20128;-73
2022/11/25 02:28:33;;;;;;;18.80;4.55;;;;;;;8.83;100.00;101019.66;5061583;28;20631;-73
2022/11/25 02:30:59;;;;;;;18.63;3.60;;;;;;;8.82;100.00;101023.41;5063489;28;20036;-73
2022/11/25 02:33:26;;;;;;;21.25;3.65;;;;;;;8.86;100.00;101022.00;5067832;28;20360;-73
2022/11/25 02:35:57;;;;;;;12.50;2.75;;;;;;;8.86;100.00;101015.72;5070940;28;20029;-73
2022/11/25 02:38:44;;;;;;;14.25;3.03;;;;;;;8.84;100.00;101018.63;5060807;28;20080;-74
2022/11/25 02:41:12;;;;;;;13.40;3.17;;;;;;;8.84;100.00;101013.16;5046721;28;20051;-72
2022/11/25 02:43:38;;;;;;;12.15;2.75;;;;;;;8.82;100.00;100995.25;5043240;28;20044;-73
2022/11/25 02:46:05;;;;;;;12.57;3.30;;;;;;;8.94;100.00;100996.50;5052093;28;20108;-74
2022/11/25 02:48:33;;;;;;;12.00;2.50;;;;;;;8.79;100.00;100993.72;5063833;28;20479;-72
2022/11/25 02:50:59;;;;;;;11.55;3.20;;;;;;;8.77;100.00;100997.69;5047067;28;20471;-74
2022/11/25 02:53:25;;;;;;;15.95;2.65;;;;;;;8.79;100.00;101003.78;5050009;28;20021;-72
2022/11/25 02:55:51;;;;;;;9.88;2.75;;;;;;;8.69;100.00;101003.19;5065741;28;20045;-73
2022/11/25 02:58:17;;;;;;;10.32;3.78;;;;;;;8.71;100.00;101006.59;5064478;28;20391;-72
2022/11/25 03:00:43;;;;;;;10.27;2.53;;;;;;;8.70;100.00;101005.75;5063674;28;20024;-72
2022/11/25 03:03:09;;;;;;;11.40;2.35;;;;;;;8.70;100.00;101013.94;5069795;28;20354;-72
2022/11/25 03:05:34;;;;;;;15.40;3.28;;;;;;;8.70;100.00;101018.56;5055093;28;20411;-74
2022/11/25 03:08:00;;;;;;;9.65;2.88;;;;;;;8.69;100.00;101025.88;5067200;28;20035;-72
2022/11/25 03:10:26;;;;;;;12.57;2.83;;;;;;;8.69;100.00;101027.75;5050292;28;20039;-71
2022/11/25 03:12:51;;;;;;;10.60;2.10;;;;;;;8.75;100.00;101027.06;5063731;28;20028;-72
2022/11/25 03:15:17;;;;;;;15.15;2.80;;;;;;;8.66;100.00;101014.47;5046935;28;20033;-73
2022/11/25 03:17:42;;;;;;;6.55;2.15;;;;;;;8.67;100.00;101010.72;5063794;28;20494;-72
2022/11/25 03:20:08;;;;;;;8.67;3.10;;;;;;;8.65;100.00;101021.81;5059983;28;20099;-74
2022/11/25 03:22:34;;;;;;;15.57;3.40;;;;;;;8.70;100.00;101033.03;5068972;28;20029;-72
2022/11/25 03:25:00;;;;;;;4.70;1.73;;;;;;;8.69;100.00;101036.81;5062265;28;20060;-72
2022/11/25 03:27:25;;;;;;;11.88;2.10;;;;;;;8.67;100.00;101044.34;5065186;28;20561;-74
2022/11/25 03:29:51;;;;;;;7.30;1.75;;;;;;;8.62;100.00;101046.75;5061264;28;20028;-74
2022/11/25 03:32:16;;;;;;;7.05;1.92;;;;;;;8.57;100.00;101051.06;5062723;28;20470;-72
2022/11/25 03:34:42;;;;;;;6.05;1.90;;;;;;;8.54;100.00;101052.25;5061760;28;20028;-73
2022/11/25 03:37:08;;;;;;;9.75;2.05;;;;;;;8.54;100.00;101054.97;5063839;28;20021;-72
2022/11/25 03:39:33;;;;;;;7.53;1.63;;;;;;;8.49;100.00;101067.50;5062747;28;20025;-72
2022/11/25 03:41:58;;;;;;;14.25;1.85;;;;;;;8.51;100.00;101073.59;5061663;28;20027;-73
2022/11/25 03:44:24;;;;;;;8.23;1.93;;;;;;;8.44;100.00;101075.34;5044713;28;20032;-72
2022/11/25 03:46:50;;;;;;;5.13;2.15;;;;;;;8.42;100.00;101086.44;5061885;28;20032;-72
2022/11/25 03:49:15;;;;;;;9.88;2.42;;;;;;;8.42;100.00;101085.59;5064663;28;20028;-73
2022/11/25 03:51:40;;;;;;;8.98;2.60;;;;;;;8.38;100.00;101087.00;5060172;28;20042;-72
2022/11/25 03:54:06;;;;;;;7.97;2.15;;;;;;;8.42;100.00;101088.31;5045024;28;20060;-72
2022/11/25 03:56:31;;;;;;;9.88;2.60;;;;;;;8.38;100.00;101098.75;5063102;28;20060;-71
2022/11/25 03:58:57;;;;;;;11.00;3.08;;;;;;;8.36;100.00;101095.34;5048543;28;20043;-71
2022/11/25 04:01:22;;;;;;;9.18;2.53;;;;;;;8.31;100.00;101097.75;5060723;28;20460;-72
2022/11/25 04:03:47;;;;;;;7.03;2.38;;;;;;;8.30;100.00;101100.66;5061778;28;20048;-74
2022/11/25 04:06:14;;;;;;;15.50;2.85;;;;;;;8.28;100.00;101100.81;5066518;28;20029;-72
2022/11/25 04:08:40;;;;;;;6.82;2.47;;;;;;;8.28;100.00;101105.44;5062198;28;20033;-72
2022/11/25 04:11:06;;;;;;;4.30;1.92;;;;;;;8.27;100.00;101096.41;5057676;28;20541;-72
2022/11/25 04:13:31;;;;;;;7.25;1.88;;;;;;;8.21;100.00;101101.69;5061340;28;20502;-72
2022/11/25 04:15:56;;;;;;;6.22;1.92;;;;;;;8.17;100.00;101095.72;5060017;28;20048;-72
2022/11/25 04:18:22;;;;;;;5.47;1.73;;;;;;;8.18;100.00;101096.59;5049526;28;20042;-74
2022/11/25 04:20:47;;;;;;;8.55;2.25;;;;;;;8.18;100.00;101085.66;5061143;28;20468;-73
2022/11/25 04:23:13;;;;;;;10.90;3.38;;;;;;;8.16;100.00;101095.91;5063443;28;20056;-72
2022/11/25 04:25:38;;;;;;;4.50;2.00;;;;;;;8.08;100.00;101099.53;5062784;28;20024;-72
2022/11/25 04:28:04;;;;;;;10.43;2.33;;;;;;;8.15;100.00;101099.66;5060865;28;20036;-74
2022/11/25 04:30:31;;;;;;;5.88;1.95;;;;;;;8.22;100.00;101106.16;5063338;28;20145;-73
2022/11/25 04:32:56;;;;;;;7.13;2.03;;;;;;;8.21;100.00;101116.22;5047992;28;20028;-73
2022/11/25 04:35:22;;;;;;;10.10;2.03;;;;;;;8.16;100.00;101115.84;5063478;28;20036;-72
2022/11/25 04:37:47;;;;;;;8.00;2.90;;;;;;;8.13;100.00;101123.53;5062184;28;20029;-72
2022/11/25 04:40:13;;;;;;;9.88;2.10;;;;;;;8.11;100.00;101117.41;5061791;28;20035;-71
2022/11/25 04:42:39;;;;;;;9.98;1.92;;;;;;;8.10;100.00;101122.00;5061190;28;20028;-72
2022/11/25 04:45:08;;;;;;;10.93;2.28;;;;;;;8.08;100.00;101125.94;5057485;28;20456;-73
2022/11/25 04:47:34;;;;;;;9.40;2.15;;;;;;;8.11;100.00;101125.59;5059331;28;20028;-72
2022/11/25 04:49:59;;;;;;;7.25;2.35;;;;;;;8.04;100.00;101127.31;5059654;28;20081;-73
2022/11/25 04:52:25;;;;;;;7.15;2.20;;;;;;;8.05;100.00;101129.88;5048019;28;20025;-72
2022/11/25 04:54:50;;;;;;;7.30;2.90;;;;;;;8.13;100.00;101138.03;5060017;28;20107;-73
2022/11/25 04:57:16;;;;;;;12.23;3.22;;;;;;;8.09;100.00;101147.59;5042720;28;20028;-72
2022/11/25 04:59:42;;;;;;;7.55;2.78;;;;;;;8.13;100.00;101140.78;5044704;28;20060;-72
2022/11/25 05:02:22;;;;;;;9.73;3.53;;;;;;;8.05;100.00;101134.44;5062093;28;20025;-72
2022/11/25 05:04:50;;;;;;;9.50;2.80;;;;;;;8.11;100.00;101144.69;5044560;28;20082;-71
2022/11/25 05:07:17;;;;;;;7.65;2.65;;;;;;;8.06;100.00;101147.09;5062335;28;20043;-71
2022/11/25 05:09:42;;;;;;;5.70;2.65;;;;;;;8.07;100.00;101157.81;5058851;28;20044;-70
2022/11/25 05:12:12;;;;;;;6.05;2.63;;;;;;;8.06;100.00;101152.56;5061903;28;20041;-71
2022/11/25 05:14:38;;;;;;;6.65;2.42;;;;;;;8.09;100.00;101163.97;5062270;28;20039;-71
2022/11/25 05:17:05;;;;;;;11.73;3.67;;;;;;;8.06;100.00;101158.00;5046825;28;20024;-72
2022/11/25 05:19:30;;;;;;;;;;;;;;;8.01;100.00;101163.97;5060582;28;20029;-71
2022/11/25 05:21:55;;;;;;;13.70;3.53;;;;;;;8.01;100.00;101163.97;5042666;28;20421;-72
2022/11/25 05:24:21;;;;;;;10.02;3.03;;;;;;;8.05;100.00;101168.06;5044254;28;20039;-71
2022/11/25 05:26:46;;;;;;;13.60;3.75;;;;;;;7.98;100.00;101152.56;5059683;28;20477;-72
2022/11/25 05:29:12;;;;;;;16.25;3.78;;;;;;;8.06;100.00;101158.00;5062017;28;20040;-74
2022/11/25 05:31:37;;;;;;;9.48;2.75;;;;;;;8.00;100.00;101165.00;5065539;28;20129;-72
2022/11/25 05:34:03;;;;;;;9.13;3.03;;;;;;;7.95;100.00;101172.00;5061875;28;20112;-72
2022/11/25 05:36:29;;;;;;;11.15;3.45;;;;;;;7.95;100.00;101177.47;5059252;28;20029;-73
2022/11/25 05:38:56;;;;;;;12.20;3.55;;;;;;;7.86;100.00;101178.47;5061083;28;20093;-74
2022/11/25 05:41:22;;;;;;;9.18;2.92;;;;;;;7.92;100.00;101185.97;5062877;28;20412;-73
2022/11/25 05:43:47;;;;;;;13.52;2.95;;;;;;;7.82;100.00;101193.47;5063784;28;20415;-71
2022/11/25 05:46:12;;;;;;;8.13;2.67;;;;;;;7.84;100.00;101195.00;5062426;28;20037;-71
2022/11/25 05:48:38;;;;;;;11.52;3.13;;;;;;;7.80;100.00;101198.25;5060193;28;20380;-73
2022/11/25 05:51:04;;;;;;;15.95;4.45;;;;;;;7.80;100.00;101206.44;5060511;28;20071;-72
2022/11/25 05:53:30;;;;;;;12.40;2.67;;;;;;;7.78;100.00;101213.91;5042858;28;20021;-71
2022/11/25 05:55:59;;;;;;;12.87;3.97;;;;;;;7.76;100.00;101214.13;5057527;28;20024;-74
2022/11/25 05:58:26;;;;;;;4.50;2.60;;;;;;;7.72;100.00;101211.88;5055872;28;20270;-72
2022/11/25 06:00:52;;;;;;;13.70;3.50;;;;;;;7.60;100.00;101208.66;5053992;28;20422;-72
2022/11/25 06:03:17;;;;;;;14.75;3.42;;;;;;;7.61;100.00;101212.22;5062130;28;20032;-72
2022/11/25 06:05:43;;;;;;;22.73;3.58;;;;;;;7.50;100.00;101210.69;5064771;28;20074;-71
2022/11/25 06:08:10;;;;;;;11.45;3.17;;;;;;;7.46;100.00;101209.31;5066557;28;20407;-72
2022/11/25 06:10:39;;;;;;;10.63;3.50;;;;;;;7.49;100.00;101214.44;5050407;28;20029;-72
2022/11/25 06:13:05;;;;;;;12.52;3.80;;;;;;;7.42;100.00;101224.28;5063809;28;20308;-73
2022/11/25 06:15:30;;;;;;;11.50;3.47;;;;;;;7.48;100.00;101226.34;5064982;28;20083;-72
2022/11/25 06:17:56;;;;;;;11.82;4.28;;;;;;;7.42;100.00;101231.63;5064950;28;20040;-71
2022/11/25 06:20:21;;;;;;;12.90;3.63;;;;;;;7.35;100.00;101227.84;5066369;28;20031;-73
2022/11/25 06:22:46;;;;;;;9.70;3.67;;;;;;;7.29;100.00;101225.78;5059590;28;20107;-72
2022/11/25 06:25:12;;;;;;;8.95;3.28;;;;;;;7.26;100.00;101234.31;5061695;28;20059;-72
2022/11/25 06:27:37;;;;;;;9.10;3.95;;;;;;;7.28;100.00;101232.28;5050361;28;20028;-72
2022/11/25 06:30:03;;;;;;;15.98;4.60;;;;;;;7.33;100.00;101238.06;5064577;28;20063;-72
2022/11/25 06:32:29;;;;;;;9.40;3.53;;;;;;;7.30;100.00;101239.25;5062680;28;20032;-72
2022/11/25 06:34:54;;;;;;;13.85;3.63;;;;;;;7.21;100.00;101242.97;5064611;28;20451;-73
2022/11/25 06:37:20;;;;;;;19.65;4.57;;;;;;;7.26;100.00;101235.16;5064726;28;20027;-73
2022/11/25 06:39:45;;;;;;;11.82;3.92;;;;;;;7.18;100.00;101237.88;5048429;28;20054;-74
2022/11/25 06:42:11;;;;;;;12.45;3.72;;;;;;;7.20;100.00;101252.16;5061380;28;20133;-72
2022/11/25 06:44:36;;;;;;;15.68;3.88;;;;;;;7.32;100.00;101250.00;5064658;28;20194;-72
2022/11/25 06:47:01;;;;;;;11.95;4.22;;;;;;;7.33;100.00;101248.97;5064337;28;20496;-72
2022/11/25 06:49:28;;;;;;;13.88;4.45;;;;;;;7.32;100.00;101250.00;5063126;28;20491;-74
2022/11/25 06:51:53;;;;;;;14.93;4.30;;;;;;;7.23;100.00;101260.03;5062150;28;20064;-72
2022/11/25 06:54:19;;;;;;;17.42;5.10;;;;;;;7.20;100.00;101259.50;5042317;28;20080;-72
2022/11/25 06:56:44;;;;;;;17.65;5.38;;;;;;;7.23;100.00;101264.59;5045167;28;20044;-72
2022/11/25 06:59:09;;;;;;;11.05;3.72;;;;;;;7.15;100.00;101270.03;5064667;28;20033;-73
2022/11/25 07:01:35;;;;;;;13.75;3.70;;;;;;;7.19;100.00;101263.22;5065080;28;20039;-72
2022/11/25 07:04:03;;;;;;;11.23;4.30;;;;;;;7.22;100.00;101274.63;5065651;28;20039;-73
2022/11/25 07:06:30;;;;;;;11.70;4.43;;;;;;;7.18;100.00;101280.59;5067319;28;20427;-73
2022/11/25 07:08:56;;;;;;;17.88;4.07;;;;;;;7.16;100.00;101279.91;5066468;28;20495;-72
2022/11/25 07:11:25;;;;;;;11.57;4.50;;;;;;;7.31;100.00;101294.63;5061471;28;20048;-73
2022/11/25 07:14:06;;;;;;;13.40;4.95;;;;;;;7.23;100.00;101283.69;5045781;28;20073;-72
2022/11/25 07:16:32;;;;;;;15.25;4.47;;;;;;;7.25;100.00;101293.38;5042968;28;20388;-73
2022/11/25 07:19:00;;;;;;;18.23;4.57;;;;;;;7.40;100.00;101299.06;5044297;28;20046;-72
2022/11/25 07:21:26;;;;;;;22.52;4.65;;;;;;;7.35;100.00;101305.00;5065230;28;20225;-71
2022/11/25 07:23:52;;;;;;;16.03;4.63;;;;;;;7.36;100.00;101298.53;5060855;28;20029;-72
2022/11/25 07:26:20;;;;;;;10.98;4.95;;;;;;;7.32;100.00;101309.94;5067419;28;20648;-72
2022/11/25 07:28:46;;;;;;;15.18;4.75;;;;;;;7.27;100.00;101312.31;5043805;28;20109;-74
2022/11/25 07:31:23;;;;;;;13.43;4.83;;;;;;;7.24;100.00;101312.63;5066490;28;20020;-73
2022/11/25 07:33:54;;;;;;;13.85;4.05;;;;;;;7.24;100.00;101316.22;5063800;28;20752;-72
2022/11/25 07:36:20;;;;;;;18.08;4.70;;;;;;;7.27;100.00;101315.03;5058008;28;20044;-74
2022/11/25 07:38:45;;;;;;;17.13;4.57;;;;;;;7.20;100.00;101323.00;5060360;28;20032;-72
2022/11/25 07:41:16;;;;;;;9.68;3.97;;;;;;;7.23;100.00;101327.25;5062438;28;20045;-73
2022/11/25 07:43:47;;;;;;;16.10;4.30;;;;;;;7.21;100.00;101321.97;5044361;28;20029;-71
2022/11/25 07:46:31;;;;;;;11.73;4.63;;;;;;;7.30;100.00;101339.19;5059395;28;20499;-72
2022/11/25 07:49:02;;;;;;;20.63;4.75;;;;;;;7.32;100.00;101345.38;5050134;28;20033;-73
2022/11/25 07:51:31;;;;;;;13.55;4.20;;;;;;;7.41;100.00;101349.81;5063596;28;20545;-72
2022/11/25 07:53:58;;;;;;;15.43;4.32;;;;;;;7.36;100.00;101363.09;5063723;28;20075;-73
2022/11/25 07:56:23;;;;;;;;;;;;;;;7.33;100.00;101368.88;5056144;28;20033;-73
2022/11/25 07:58:48;;;;;;;6.65;3.25;;;;;;;7.40;100.00;101369.91;5064051;28;19928;-73
2022/11/25 08:01:15;;;;;;;13.75;3.80;;;;;;;7.50;100.00;101365.19;5063634;28;20064;-72
2022/11/25 08:03:42;;;;;;;9.23;3.42;;;;;;;7.46;100.00;101382.88;5063751;28;20024;-72
2022/11/25 08:06:11;;;;;;;15.63;3.88;;;;;;;7.60;100.00;101382.25;5062902;28;20484;-71
2022/11/25 08:08:38;;;;;;;15.52;3.80;;;;;;;7.57;100.00;101379.84;5060702;28;20043;-73
2022/11/25 08:11:08;;;;;;;20.90;4.32;;;;;;;7.55;100.00;101385.47;5062210;28;20036;-74
2022/11/25 08:13:34;;;;;;;12.48;3.97;;;;;;;7.59;100.00;101386.00;5062764;28;20036;-73
2022/11/25 08:16:00;;;;;;;11.43;3.47;;;;;;;7.65;100.00;101388.06;5064698;28;20077;-73
2022/11/25 08:18:26;;;;;;;9.55;4.30;;;;;;;7.69;100.00;101397.63;5043090;28;20280;-73
2022/11/25 08:20:57;;;;;;;9.25;4.25;;;;;;;7.59;100.00;101405.91;5050617;28;20472;-73
2022/11/25 08:23:22;;;;;;;9.77;3.88;;;;;;;7.67;100.00;101408.69;5061969;28;20037;-73
2022/11/25 08:25:47;;;;;;;12.93;3.80;;;;;;;7.76;100.00;101407.72;5066005;28;20502;-74
2022/11/25 08:28:12;;;;;;;11.25;3.67;;;;;;;7.77;100.00;101409.41;5061977;28;20029;-72
2022/11/25 08:30:38;;;;;;;10.85;3.60;;;;;;;7.77;100.00;101408.53;5061807;28;20077;-75
2022/11/25 08:33:06;;;;;;;12.00;3.60;;;;;;;7.79;100.00;101411.97;5058708;28;20116;-73
2022/11/25 08:35:36;;;;;;;14.63;4.45;;;;;;;7.77;100.00;101420.31;5059212;28;20175;-72
2022/11/25 08:38:06;;;;;;;13.60;4.40;;;;;;;7.73;100.00;101423.53;5057897;28;20420;-72
2022/11/25 08:40:33;;;;;;;16.48;3.88;;;;;;;7.72;100.00;101416.38;5047807;28;20169;-71
2022/11/25 08:42:59;;;;;;;13.02;4.53;;;;;;;7.70;100.00;101416.53;5042163;28;20404;-71
2022/11/25 08:45:24;;;;;;;13.40;3.88;;;;;;;7.86;100.00;101413.00;5062096;28;20041;-72
2022/11/25 08:47:49;;;;;;;18.50;5.55;;;;;;;7.85;100.00;101424.94;5043359;28;20036;-72
2022/11/25 08:50:15;;;;;;;8.73;4.20;;;;;;;7.86;100.00;101429.38;5057689;28;20480;-72
2022/11/25 08:52:41;;;;;;;10.70;3.75;;;;;;;7.85;100.00;101433.13;5061877;28;20415;-72
2022/11/25 08:55:07;;;;;;;11.75;5.07;;;;;;;7.87;100.00;101436.53;5040103;28;20033;-73
2022/11/25 08:57:33;;;;;;;13.73;4.57;;;;;;;7.81;100.00;101442.66;5061340;28;20536;-72
2022/11/25 08:59:59;;;;;;;12.00;5.45;;;;;;;7.80;100.00;101444.50;5055854;28;20125;-72
2022/11/25 09:02:24;;;;;;;11.98;4.80;;;;;;;7.87;100.00;101447.44;5050762;28;20115;-73
2022/11/25 09:04:50;;;;;;;14.23;5.13;;;;;;;7.93;100.00;101444.06;5052070;28;20036;-73
2022/11/25 09:07:15;;;;;;;15.80;5.78;;;;;;;7.94;100.00;101453.94;5058662;28;20037;-72
2022/11/25 09:09:41;;;;;;;15.90;5.00;;;;;;;8.01;100.00;101460.47;5061082;28;20039;-72
2022/11/25 09:12:06;;;;;;;12.00;5.00;;;;;;;8.03;100.00;101458.41;5044088;28;20051;-74
2022/11/25 09:14:31;;;;;;;17.00;5.60;;;;;;;8.05;100.00;101461.81;5059650;28;20033;-75
2022/11/25 09:16:57;;;;;;;14.52;5.53;;;;;;;8.02;100.00;101459.44;5044430;28;20372;-75
2022/11/25 09:19:22;;;;;;;17.08;6.28;;;;;;;8.05;100.00;101472.72;5043381;28;20028;-72
2022/11/25 09:21:48;;;;;;;16.23;5.70;;;;;;;8.06;100.00;101464.38;5041128;28;20090;-74
2022/11/25 09:24:13;;;;;;;18.30;6.68;;;;;;;8.12;100.00;101468.34;5061909;28;20055;-73
2022/11/25 09:26:39;;;;;;;18.98;6.75;;;;;;;8.13;100.00;101479.09;5061459;28;20376;-72
2022/11/25 09:29:07;;;;;;;17.83;7.13;;;;;;;8.28;100.00;101482.88;5059166;28;20133;-75
2022/11/25 09:31:32;;;;;;;;;;;;;;;8.33;100.00;101496.06;5063795;28;20155;-72
2022/11/25 09:33:57;;;;;;;17.75;6.63;;;;;;;8.35;100.00;101494.88;5049491;28;20016;-74
2022/11/25 09:36:23;;;;;;;16.98;7.32;;;;;;;8.36;100.00;101501.16;5056423;28;20028;-73
2022/11/25 09:38:50;;;;;;;16.88;7.43;;;;;;;8.42;100.00;101505.94;5067639;28;20536;-72
2022/11/25 09:47:51;;;;;;;19.30;7.03;;;;;;;8.77;100.00;101522.94;5065506;28;20031;-73
2022/11/25 09:50:23;;;;;;;22.27;7.50;;;;;;;8.81;100.00;101520.72;5063021;28;20039;-73
2022/11/25 09:53:11;;;;;;;18.65;6.65;;;;;;;8.88;100.00;101528.06;5064074;28;20479;-73
2022/11/25 09:55:44;;;;;;;18.80;6.15;;;;;;;8.93;100.00;101535.72;5048512;28;20039;-74
2022/11/25 09:58:45;;;;;;;15.95;6.15;;;;;;;9.01;99.30;101533.00;5067966;28;20031;-71
2022/11/25 10:01:18;;;;;;;19.90;6.65;;;;;;;9.09;99.19;101539.34;5009746;28;20145;-73
2022/11/25 10:03:49;;;;;;;26.05;6.00;;;;;;;9.13;99.42;101545.31;5061517;28;20502;-75
2022/11/25 10:06:25;;;;;;;14.57;5.03;;;;;;;9.21;98.91;101553.50;5066437;28;20035;-73
2022/11/25 10:08:52;;;;;;;12.52;4.65;;;;;;;9.29;97.91;101554.34;5054486;28;20052;-73
2022/11/25 10:11:18;;;;;;;15.73;4.82;;;;;;;9.37;97.59;101557.09;5061627;28;20472;-74
2022/11/25 10:14:02;;;;;;;20.40;6.10;;;;;;;9.47;97.71;101546.81;5063871;28;20028;-72
2022/11/25 10:16:31;;;;;;;13.60;4.68;;;;;;;9.54;97.31;101546.97;5061900;28;20438;-73
2022/11/25 10:19:37;;;;;;;16.83;5.10;;;;;;;9.63;97.07;101557.72;5064171;28;20029;-73
2022/11/25 10:22:20;;;;;;;17.10;5.60;;;;;;;9.72;95.53;101553.94;5035257;28;20456;-71
2022/11/25 10:24:45;;;;;;;15.60;4.28;;;;;;;9.72;95.99;101555.84;5047705;28;20040;-72
2022/11/25 10:27:18;;;;;;;12.05;3.85;;;;;;;9.86;95.82;101574.25;5065017;28;20350;-72
2022/11/25 10:29:48;;;;;;;15.60;3.92;;;;;;;9.88;95.75;101573.03;5052785;28;20028;-72
2022/11/25 10:32:26;;;;;;;15.23;3.83;;;;;;;9.88;95.75;101572.22;5045700;28;20048;-72
2022/11/25 10:34:59;;;;;;;15.77;3.85;;;;;;;9.96;95.04;101573.03;5066085;28;20028;-72
2022/11/25 10:37:40;;;;;;;14.07;3.55;;;;;;;10.12;95.12;101581.22;5063607;28;20024;-74
2022/11/25 10:40:12;;;;;;;15.00;3.88;;;;;;;10.12;94.01;101575.75;5062926;28;20447;-73
2022/11/25 10:42:37;;;;;;;12.65;3.83;;;;;;;10.15;94.91;101580.03;5064459;28;20078;-72
2022/11/25 10:45:07;;;;;;;10.18;3.33;;;;;;;10.20;94.02;101588.56;5046162;28;20028;-74
2022/11/25 10:47:46;;;;;;;15.07;3.25;;;;;;;10.30;93.75;101587.31;5045942;28;20075;-74
2022/11/25 10:50:18;;;;;;;13.95;3.33;;;;;;;10.31;94.05;101602.69;5059631;28;20043;-71
2022/11/25 10:52:55;;;;;;;14.75;3.03;;;;;;;10.42;93.50;101598.75;5049292;28;20523;-72
2022/11/25 10:55:26;;;;;;;14.95;3.25;;;;;;;10.45;94.38;101606.56;5061660;28;20038;-72
2022/11/25 10:57:53;;;;;;;16.30;4.00;;;;;;;10.54;93.59;101606.38;5060283;28;20052;-72
2022/11/25 11:00:33;;;;;;;15.80;3.90;;;;;;;10.53;91.81;101599.22;5063673;28;20075;-73
2022/11/25 11:03:12;;;;;;;12.45;2.67;;;;;;;10.56;92.70;101609.78;5040392;28;20517;-73
2022/11/25 11:05:48;;;;;;;11.40;2.50;;;;;;;10.61;91.18;101614.72;5061343;28;20036;-73
2022/11/25 11:08:13;;;;;;;13.20;2.95;;;;;;;10.65;92.45;101627.03;5046827;28;20900;-74
2022/11/25 11:10:39;;;;;;;11.67;2.93;;;;;;;10.71;91.12;101615.34;5059537;28;20025;-73
2022/11/25 11:13:19;;;;;;;12.73;2.90;;;;;;;10.73;91.67;101621.53;5045052;28;20036;-73
2022/11/25 11:15:46;;;;;;;13.45;2.40;;;;;;;10.77;91.53;101615.50;5048314;28;20555;-72
2022/11/25 11:18:39;;;;;;;12.98;2.83;;;;;;;10.81;90.78;101626.94;5042061;28;20038;-74
2022/11/25 11:21:07;;;;;;;10.27;2.85;;;;;;;10.92;89.30;101632.03;5042631;28;20051;-74
2022/11/25 11:23:47;;;;;;;19.85;2.72;;;;;;;10.90;89.74;101636.84;5041103;28;20519;-73
2022/11/25 11:26:22;;;;;;;17.45;3.03;;;;;;;10.95;90.51;101648.97;5061947;28;20040;-73
2022/11/25 11:28:57;;;;;;;12.73;2.28;;;;;;;10.98;90.16;101648.63;5060292;28;20066;-73
2022/11/25 11:31:26;;;;;;;7.47;1.98;;;;;;;11.09;90.59;101661.91;5063760;28;20107;-71